sensor_id;sensor_type;location;lat;lon;timestamp;temperature;humidity
35645;DHT22;21764;52.042;6.830;2023-07-13T00:04:35;16.20;96.10
35645;DHT22;21764;52.042;6.830;2023-07-13T00:09:36;16.30;96.30
35645;DHT22;21764;52.042;6.830;2023-07-13T00:14:37;16.30;96.50
35645;DHT22;21764;52.042;6.830;2023-07-13T00:19:37;16.20;96.50
35645;DHT22;21764;52.042;6.830;2023-07-13T00:24:38;16.10;96.60
35645;DHT22;21764;52.042;6.830;2023-07-13T00:29:42;16.10;96.80
35645;DHT22;21764;52.042;6.830;2023-07-13T00:34:42;16.00;96.80
35645;DHT22;21764;52.042;6.830;2023-07-13T00:39:43;16.00;97.10
35645;DHT22;21764;52.042;6.830;2023-07-13T00:50:21;15.90;97.60
35645;DHT22;21764;52.042;6.830;2023-07-13T00:55:23;15.90;97.60
35645;DHT22;21764;52.042;6.830;2023-07-13T01:00:25;15.80;97.90
35645;DHT22;21764;52.042;6.830;2023-07-13T01:05:27;15.70;98.20
35645;DHT22;21764;52.042;6.830;2023-07-13T01:10:27;15.80;98.30
35645;DHT22;21764;52.042;6.830;2023-07-13T01:20:38;15.70;98.10
35645;DHT22;21764;52.042;6.830;2023-07-13T01:25:39;15.60;98.30
35645;DHT22;21764;52.042;6.830;2023-07-13T01:30:40;15.60;98.20
35645;DHT22;21764;52.042;6.830;2023-07-13T01:35:41;15.60;98.40
35645;DHT22;21764;52.042;6.830;2023-07-13T01:40:42;15.50;98.40
35645;DHT22;21764;52.042;6.830;2023-07-13T01:45:42;15.50;98.70
35645;DHT22;21764;52.042;6.830;2023-07-13T01:50:44;15.40;98.50
35645;DHT22;21764;52.042;6.830;2023-07-13T01:55:45;15.30;98.60
35645;DHT22;21764;52.042;6.830;2023-07-13T02:00:48;15.30;98.80
35645;DHT22;21764;52.042;6.830;2023-07-13T02:05:50;15.20;99.00
35645;DHT22;21764;52.042;6.830;2023-07-13T02:10:50;15.20;99.20
35645;DHT22;21764;52.042;6.830;2023-07-13T02:15:52;15.20;99.20
35645;DHT22;21764;52.042;6.830;2023-07-13T02:20:52;15.30;98.70
35645;DHT22;21764;52.042;6.830;2023-07-13T02:25:57;15.20;98.40
35645;DHT22;21764;52.042;6.830;2023-07-13T02:31:05;15.20;98.90
35645;DHT22;21764;52.042;6.830;2023-07-13T02:36:06;15.10;98.90
35645;DHT22;21764;52.042;6.830;2023-07-13T02:41:07;15.10;99.50
35645;DHT22;21764;52.042;6.830;2023-07-13T02:46:09;15.20;99.00
35645;DHT22;21764;52.042;6.830;2023-07-13T02:51:10;15.20;98.80
35645;DHT22;21764;52.042;6.830;2023-07-13T02:56:10;15.20;98.70
35645;DHT22;21764;52.042;6.830;2023-07-13T03:01:11;15.10;98.60
35645;DHT22;21764;52.042;6.830;2023-07-13T03:06:13;15.10;99.20
35645;DHT22;21764;52.042;6.830;2023-07-13T03:11:17;15.10;99.10
35645;DHT22;21764;52.042;6.830;2023-07-13T03:16:18;15.00;99.90
35645;DHT22;21764;52.042;6.830;2023-07-13T03:21:19;15.30;99.30
35645;DHT22;21764;52.042;6.830;2023-07-13T03:26:20;15.50;98.50
35645;DHT22;21764;52.042;6.830;2023-07-13T03:31:24;15.70;98.90
35645;DHT22;21764;52.042;6.830;2023-07-13T03:36:28;15.80;98.10
35645;DHT22;21764;52.042;6.830;2023-07-13T03:41:29;15.90;97.90
35645;DHT22;21764;52.042;6.830;2023-07-13T03:46:29;15.90;97.70
35645;DHT22;21764;52.042;6.830;2023-07-13T03:51:30;16.00;98.10
35645;DHT22;21764;52.042;6.830;2023-07-13T03:56:31;15.90;97.50
35645;DHT22;21764;52.042;6.830;2023-07-13T04:01:33;15.90;97.70
35645;DHT22;21764;52.042;6.830;2023-07-13T04:06:34;15.90;97.90
35645;DHT22;21764;52.042;6.830;2023-07-13T04:11:35;15.80;98.30
35645;DHT22;21764;52.042;6.830;2023-07-13T04:16:38;15.70;98.40
35645;DHT22;21764;52.042;6.830;2023-07-13T04:21:38;15.90;98.20
35645;DHT22;21764;52.042;6.830;2023-07-13T04:26:39;16.10;98.00
35645;DHT22;21764;52.042;6.830;2023-07-13T04:31:40;16.20;97.50
35645;DHT22;21764;52.042;6.830;2023-07-13T04:36:40;16.30;97.60
35645;DHT22;21764;52.042;6.830;2023-07-13T04:41:41;16.70;97.00
35645;DHT22;21764;52.042;6.830;2023-07-13T04:46:42;16.90;96.10
35645;DHT22;21764;52.042;6.830;2023-07-13T04:51:42;17.70;94.60
35645;DHT22;21764;52.042;6.830;2023-07-13T04:56:43;18.70;93.30
35645;DHT22;21764;52.042;6.830;2023-07-13T05:01:44;19.50;91.40
35645;DHT22;21764;52.042;6.830;2023-07-13T05:06:44;20.50;89.40
35645;DHT22;21764;52.042;6.830;2023-07-13T05:11:45;21.40;85.60
35645;DHT22;21764;52.042;6.830;2023-07-13T05:16:46;22.00;82.20
35645;DHT22;21764;52.042;6.830;2023-07-13T05:21:46;22.80;79.40
35645;DHT22;21764;52.042;6.830;2023-07-13T05:26:47;23.30;76.80
35645;DHT22;21764;52.042;6.830;2023-07-13T05:31:48;24.10;74.00
35645;DHT22;21764;52.042;6.830;2023-07-13T05:36:49;25.10;70.50
35645;DHT22;21764;52.042;6.830;2023-07-13T05:41:50;25.00;69.10
35645;DHT22;21764;52.042;6.830;2023-07-13T05:46:50;26.10;66.30
35645;DHT22;21764;52.042;6.830;2023-07-13T05:51:51;26.80;63.90
35645;DHT22;21764;52.042;6.830;2023-07-13T05:56:52;28.40;60.50
35645;DHT22;21764;52.042;6.830;2023-07-13T06:01:52;28.30;61.00
35645;DHT22;21764;52.042;6.830;2023-07-13T06:06:53;27.80;61.00
35645;DHT22;21764;52.042;6.830;2023-07-13T06:11:54;25.20;66.70
35645;DHT22;21764;52.042;6.830;2023-07-13T06:16:54;24.10;71.50
35645;DHT22;21764;52.042;6.830;2023-07-13T06:21:55;22.80;75.60
35645;DHT22;21764;52.042;6.830;2023-07-13T06:26:55;24.80;69.40
35645;DHT22;21764;52.042;6.830;2023-07-13T06:31:56;23.60;74.80
35645;DHT22;21764;52.042;6.830;2023-07-13T06:36:57;27.90;65.40
35645;DHT22;21764;52.042;6.830;2023-07-13T06:41:58;27.30;62.60
35645;DHT22;21764;52.042;6.830;2023-07-13T06:46:58;28.60;65.20
35645;DHT22;21764;52.042;6.830;2023-07-13T06:51:59;26.30;66.20
35645;DHT22;21764;52.042;6.830;2023-07-13T06:57:00;24.40;70.50
35645;DHT22;21764;52.042;6.830;2023-07-13T07:02:00;22.60;77.50
35645;DHT22;21764;52.042;6.830;2023-07-13T07:07:01;21.80;80.40
35645;DHT22;21764;52.042;6.830;2023-07-13T07:12:03;21.60;82.10
35645;DHT22;21764;52.042;6.830;2023-07-13T07:17:04;22.40;80.80
35645;DHT22;21764;52.042;6.830;2023-07-13T07:22:04;23.30;78.40
35645;DHT22;21764;52.042;6.830;2023-07-13T07:27:05;25.10;71.00
35645;DHT22;21764;52.042;6.830;2023-07-13T07:32:06;24.20;75.50
35645;DHT22;21764;52.042;6.830;2023-07-13T07:37:09;23.80;75.20
35645;DHT22;21764;52.042;6.830;2023-07-13T07:42:10;24.10;75.30
35645;DHT22;21764;52.042;6.830;2023-07-13T07:47:13;22.90;78.10
35645;DHT22;21764;52.042;6.830;2023-07-13T07:52:13;22.70;80.90
35645;DHT22;21764;52.042;6.830;2023-07-13T07:57:14;22.10;81.40
35645;DHT22;21764;52.042;6.830;2023-07-13T08:02:14;21.90;81.50
35645;DHT22;21764;52.042;6.830;2023-07-13T08:07:15;22.10;82.20
35645;DHT22;21764;52.042;6.830;2023-07-13T08:12:16;23.30;79.00
35645;DHT22;21764;52.042;6.830;2023-07-13T08:17:16;24.30;74.90
35645;DHT22;21764;52.042;6.830;2023-07-13T08:22:17;24.90;73.80
35645;DHT22;21764;52.042;6.830;2023-07-13T08:27:18;24.40;73.50
35645;DHT22;21764;52.042;6.830;2023-07-13T08:32:21;24.30;73.60
35645;DHT22;21764;52.042;6.830;2023-07-13T08:37:22;24.70;73.30
35645;DHT22;21764;52.042;6.830;2023-07-13T08:52:55;28.40;66.30
35645;DHT22;21764;52.042;6.830;2023-07-13T08:58:11;30.10;60.10
35645;DHT22;21764;52.042;6.830;2023-07-13T09:03:39;29.50;60.90
35645;DHT22;21764;52.042;6.830;2023-07-13T09:19:04;26.90;65.60
35645;DHT22;21764;52.042;6.830;2023-07-13T09:24:41;27.70;65.00
35645;DHT22;21764;52.042;6.830;2023-07-13T09:30:04;26.30;67.00
35645;DHT22;21764;52.042;6.830;2023-07-13T09:35:12;31.70;61.10
35645;DHT22;21764;52.042;6.830;2023-07-13T09:40:22;35.40;54.60
35645;DHT22;21764;52.042;6.830;2023-07-13T09:45:30;34.70;51.90
35645;DHT22;21764;52.042;6.830;2023-07-13T09:50:31;32.80;54.40
35645;DHT22;21764;52.042;6.830;2023-07-13T09:55:36;34.60;51.70
35645;DHT22;21764;52.042;6.830;2023-07-13T10:00:37;36.40;51.00
35645;DHT22;21764;52.042;6.830;2023-07-13T10:05:42;38.20;48.30
35645;DHT22;21764;52.042;6.830;2023-07-13T10:10:43;34.80;49.30
35645;DHT22;21764;52.042;6.830;2023-07-13T10:15:44;30.90;54.80
35645;DHT22;21764;52.042;6.830;2023-07-13T10:20:45;28.70;58.50
35645;DHT22;21764;52.042;6.830;2023-07-13T10:25:47;27.70;61.80
35645;DHT22;21764;52.042;6.830;2023-07-13T10:30:48;29.00;58.90
35645;DHT22;21764;52.042;6.830;2023-07-13T10:35:54;27.70;59.40
35645;DHT22;21764;52.042;6.830;2023-07-13T10:41:05;29.00;58.30
35645;DHT22;21764;52.042;6.830;2023-07-13T10:46:15;28.30;58.60
35645;DHT22;21764;52.042;6.830;2023-07-13T10:51:18;27.60;59.60
35645;DHT22;21764;52.042;6.830;2023-07-13T10:56:28;27.90;59.70
35645;DHT22;21764;52.042;6.830;2023-07-13T11:01:40;28.40;59.30
35645;DHT22;21764;52.042;6.830;2023-07-13T11:06:42;28.10;58.70
35645;DHT22;21764;52.042;6.830;2023-07-13T11:11:46;26.80;61.50
35645;DHT22;21764;52.042;6.830;2023-07-13T11:16:47;25.70;69.20
35645;DHT22;21764;52.042;6.830;2023-07-13T11:27:42;26.30;67.00
35645;DHT22;21764;52.042;6.830;2023-07-13T11:32:43;26.50;67.10
35645;DHT22;21764;52.042;6.830;2023-07-13T11:37:45;25.70;65.60
35645;DHT22;21764;52.042;6.830;2023-07-13T11:42:46;24.90;66.40
35645;DHT22;21764;52.042;6.830;2023-07-13T11:47:48;24.90;67.00
35645;DHT22;21764;52.042;6.830;2023-07-13T11:52:51;25.00;67.00
35645;DHT22;21764;52.042;6.830;2023-07-13T11:57:57;25.50;66.10
35645;DHT22;21764;52.042;6.830;2023-07-13T12:03:00;25.80;65.80
35645;DHT22;21764;52.042;6.830;2023-07-13T12:08:09;25.90;63.70
35645;DHT22;21764;52.042;6.830;2023-07-13T12:13:11;26.10;61.30
35645;DHT22;21764;52.042;6.830;2023-07-13T12:18:15;26.10;61.90
35645;DHT22;21764;52.042;6.830;2023-07-13T12:23:25;26.00;62.70
35645;DHT22;21764;52.042;6.830;2023-07-13T12:28:37;25.50;63.50
35645;DHT22;21764;52.042;6.830;2023-07-13T12:33:39;24.70;66.30
35645;DHT22;21764;52.042;6.830;2023-07-13T12:38:45;25.40;66.20
35645;DHT22;21764;52.042;6.830;2023-07-13T12:43:46;25.30;64.00
35645;DHT22;21764;52.042;6.830;2023-07-13T12:48:52;25.50;65.40
35645;DHT22;21764;52.042;6.830;2023-07-13T12:53:58;25.10;64.90
35645;DHT22;21764;52.042;6.830;2023-07-13T12:59:05;24.80;65.60
35645;DHT22;21764;52.042;6.830;2023-07-13T13:04:09;24.20;67.80
35645;DHT22;21764;52.042;6.830;2023-07-13T13:09:13;23.60;70.10
35645;DHT22;21764;52.042;6.830;2023-07-13T13:14:14;23.40;71.80
35645;DHT22;21764;52.042;6.830;2023-07-13T13:19:17;23.60;72.60
35645;DHT22;21764;52.042;6.830;2023-07-13T13:24:21;24.50;70.10
35645;DHT22;21764;52.042;6.830;2023-07-13T13:29:24;25.40;65.70
35645;DHT22;21764;52.042;6.830;2023-07-13T13:34:25;25.20;64.60
35645;DHT22;21764;52.042;6.830;2023-07-13T13:39:35;25.30;63.60
35645;DHT22;21764;52.042;6.830;2023-07-13T13:44:37;25.20;64.30
35645;DHT22;21764;52.042;6.830;2023-07-13T13:49:37;25.60;64.70
35645;DHT22;21764;52.042;6.830;2023-07-13T13:54:39;25.00;70.20
35645;DHT22;21764;52.042;6.830;2023-07-13T13:59:39;23.90;78.20
35645;DHT22;21764;52.042;6.830;2023-07-13T14:04:40;23.20;81.00
35645;DHT22;21764;52.042;6.830;2023-07-13T14:09:41;22.60;83.20
35645;DHT22;21764;52.042;6.830;2023-07-13T14:14:42;22.30;84.10
35645;DHT22;21764;52.042;6.830;2023-07-13T14:19:43;22.30;85.50
35645;DHT22;21764;52.042;6.830;2023-07-13T14:24:44;22.60;85.90
35645;DHT22;21764;52.042;6.830;2023-07-13T14:29:44;22.80;83.50
35645;DHT22;21764;52.042;6.830;2023-07-13T14:34:45;23.10;81.60
35645;DHT22;21764;52.042;6.830;2023-07-13T14:39:49;23.40;77.30
35645;DHT22;21764;52.042;6.830;2023-07-13T14:44:52;23.60;77.80
35645;DHT22;21764;52.042;6.830;2023-07-13T14:49:53;23.30;76.00
35645;DHT22;21764;52.042;6.830;2023-07-13T14:54:54;22.90;77.70
35645;DHT22;21764;52.042;6.830;2023-07-13T14:59:55;22.70;77.20
35645;DHT22;21764;52.042;6.830;2023-07-13T15:04:56;23.00;77.50
35645;DHT22;21764;52.042;6.830;2023-07-13T15:09:56;22.90;79.30
35645;DHT22;21764;52.042;6.830;2023-07-13T15:14:57;23.30;77.90
35645;DHT22;21764;52.042;6.830;2023-07-13T15:19:58;23.30;78.60
35645;DHT22;21764;52.042;6.830;2023-07-13T15:24:59;22.90;76.60
35645;DHT22;21764;52.042;6.830;2023-07-13T15:30:00;23.00;77.70
35645;DHT22;21764;52.042;6.830;2023-07-13T15:35:01;23.20;76.10
35645;DHT22;21764;52.042;6.830;2023-07-13T15:40:02;23.30;76.90
35645;DHT22;21764;52.042;6.830;2023-07-13T15:45:03;23.40;76.00
35645;DHT22;21764;52.042;6.830;2023-07-13T15:50:04;23.60;75.20
35645;DHT22;21764;52.042;6.830;2023-07-13T15:55:07;23.90;76.00
35645;DHT22;21764;52.042;6.830;2023-07-13T16:00:20;24.20;73.20
35645;DHT22;21764;52.042;6.830;2023-07-13T16:05:23;23.40;73.30
35645;DHT22;21764;52.042;6.830;2023-07-13T16:10:30;22.70;77.30
35645;DHT22;21764;52.042;6.830;2023-07-13T16:15:32;22.10;79.10
35645;DHT22;21764;52.042;6.830;2023-07-13T16:20:33;21.40;81.20
35645;DHT22;21764;52.042;6.830;2023-07-13T16:25:33;20.50;86.20
35645;DHT22;21764;52.042;6.830;2023-07-13T16:30:36;20.20;89.20
35645;DHT22;21764;52.042;6.830;2023-07-13T16:35:38;20.00;90.20
35645;DHT22;21764;52.042;6.830;2023-07-13T16:40:39;19.90;91.50
35645;DHT22;21764;52.042;6.830;2023-07-13T16:45:41;19.80;91.70
35645;DHT22;21764;52.042;6.830;2023-07-13T16:50:45;19.80;91.80
35645;DHT22;21764;52.042;6.830;2023-07-13T16:55:50;19.80;92.10
35645;DHT22;21764;52.042;6.830;2023-07-13T17:00:51;19.90;92.40
35645;DHT22;21764;52.042;6.830;2023-07-13T17:05:53;20.00;92.50
35645;DHT22;21764;52.042;6.830;2023-07-13T17:10:57;20.20;92.20
35645;DHT22;21764;52.042;6.830;2023-07-13T17:15:58;20.10;93.00
35645;DHT22;21764;52.042;6.830;2023-07-13T17:20:59;20.20;93.00
35645;DHT22;21764;52.042;6.830;2023-07-13T17:26:00;20.40;92.70
35645;DHT22;21764;52.042;6.830;2023-07-13T17:31:01;20.20;94.10
35645;DHT22;21764;52.042;6.830;2023-07-13T17:36:04;20.10;94.60
35645;DHT22;21764;52.042;6.830;2023-07-13T17:41:07;20.10;94.30
35645;DHT22;21764;52.042;6.830;2023-07-13T17:51:15;20.10;95.00
35645;DHT22;21764;52.042;6.830;2023-07-13T17:56:16;20.10;94.80
35645;DHT22;21764;52.042;6.830;2023-07-13T18:01:19;20.10;95.20
35645;DHT22;21764;52.042;6.830;2023-07-13T18:06:25;20.30;94.60
35645;DHT22;21764;52.042;6.830;2023-07-13T18:11:29;20.60;94.50
35645;DHT22;21764;52.042;6.830;2023-07-13T18:16:31;20.60;94.20
35645;DHT22;21764;52.042;6.830;2023-07-13T18:21:34;20.40;94.70
35645;DHT22;21764;52.042;6.830;2023-07-13T18:26:34;20.20;94.50
35645;DHT22;21764;52.042;6.830;2023-07-13T18:31:38;20.00;95.60
35645;DHT22;21764;52.042;6.830;2023-07-13T18:36:39;19.80;96.10
35645;DHT22;21764;52.042;6.830;2023-07-13T18:41:40;19.60;97.00
35645;DHT22;21764;52.042;6.830;2023-07-13T18:46:41;19.50;98.30
35645;DHT22;21764;52.042;6.830;2023-07-13T18:51:42;19.40;98.30
35645;DHT22;21764;52.042;6.830;2023-07-13T18:56:42;19.30;98.00
35645;DHT22;21764;52.042;6.830;2023-07-13T19:01:43;19.30;97.40
35645;DHT22;21764;52.042;6.830;2023-07-13T19:06:46;19.20;97.10
35645;DHT22;21764;52.042;6.830;2023-07-13T19:11:48;19.10;97.30
35645;DHT22;21764;52.042;6.830;2023-07-13T19:16:49;19.10;96.10
35645;DHT22;21764;52.042;6.830;2023-07-13T19:21:51;19.00;96.50
35645;DHT22;21764;52.042;6.830;2023-07-13T19:26:53;18.80;96.90
35645;DHT22;21764;52.042;6.830;2023-07-13T19:31:56;18.70;96.80
35645;DHT22;21764;52.042;6.830;2023-07-13T19:37:02;18.70;96.70
35645;DHT22;21764;52.042;6.830;2023-07-13T19:42:25;18.50;96.80
35645;DHT22;21764;52.042;6.830;2023-07-13T19:47:26;18.40;97.40
35645;DHT22;21764;52.042;6.830;2023-07-13T19:52:28;18.20;97.80
35645;DHT22;21764;52.042;6.830;2023-07-13T19:57:29;18.10;98.10
35645;DHT22;21764;52.042;6.830;2023-07-13T20:02:29;18.00;98.50
35645;DHT22;21764;52.042;6.830;2023-07-13T20:07:30;17.90;98.80
35645;DHT22;21764;52.042;6.830;2023-07-13T20:12:35;17.80;99.10
35645;DHT22;21764;52.042;6.830;2023-07-13T20:17:37;17.70;98.80
35645;DHT22;21764;52.042;6.830;2023-07-13T20:22:39;17.60;99.00
35645;DHT22;21764;52.042;6.830;2023-07-13T20:27:39;17.60;98.90
35645;DHT22;21764;52.042;6.830;2023-07-13T20:32:40;17.50;99.20
35645;DHT22;21764;52.042;6.830;2023-07-13T20:37:41;17.40;99.30
35645;DHT22;21764;52.042;6.830;2023-07-13T20:42:42;17.30;99.30
35645;DHT22;21764;52.042;6.830;2023-07-13T20:47:44;17.20;99.50
35645;DHT22;21764;52.042;6.830;2023-07-13T20:52:49;17.20;99.90
35645;DHT22;21764;52.042;6.830;2023-07-13T20:57:52;17.10;99.90
35645;DHT22;21764;52.042;6.830;2023-07-13T21:03:06;17.00;99.90
35645;DHT22;21764;52.042;6.830;2023-07-13T21:08:13;16.90;99.90
35645;DHT22;21764;52.042;6.830;2023-07-13T21:13:16;16.90;99.90
35645;DHT22;21764;52.042;6.830;2023-07-13T21:18:20;16.90;99.90
35645;DHT22;21764;52.042;6.830;2023-07-13T21:23:32;16.80;99.90
35645;DHT22;21764;52.042;6.830;2023-07-13T21:28:36;16.70;99.90
35645;DHT22;21764;52.042;6.830;2023-07-13T21:33:37;16.60;99.90
35645;DHT22;21764;52.042;6.830;2023-07-13T21:38:42;16.50;99.90
35645;DHT22;21764;52.042;6.830;2023-07-13T21:43:44;16.50;99.90
35645;DHT22;21764;52.042;6.830;2023-07-13T21:48:44;16.50;99.90
35645;DHT22;21764;52.042;6.830;2023-07-13T21:53:46;16.50;99.90
35645;DHT22;21764;52.042;6.830;2023-07-13T21:58:47;16.40;99.90
35645;DHT22;21764;52.042;6.830;2023-07-13T22:03:54;16.40;99.90
35645;DHT22;21764;52.042;6.830;2023-07-13T22:08:56;16.40;99.90
35645;DHT22;21764;52.042;6.830;2023-07-13T22:13:59;16.30;99.90
35645;DHT22;21764;52.042;6.830;2023-07-13T22:19:05;16.30;99.90
35645;DHT22;21764;52.042;6.830;2023-07-13T22:24:14;16.30;99.90
35645;DHT22;21764;52.042;6.830;2023-07-13T22:29:19;16.30;99.90
35645;DHT22;21764;52.042;6.830;2023-07-13T22:34:20;16.20;99.90
35645;DHT22;21764;52.042;6.830;2023-07-13T22:39:27;16.10;99.90
35645;DHT22;21764;52.042;6.830;2023-07-13T22:44:28;16.10;99.90
35645;DHT22;21764;52.042;6.830;2023-07-13T22:49:32;16.10;99.90
35645;DHT22;21764;52.042;6.830;2023-07-13T22:54:33;16.10;99.90
35645;DHT22;21764;52.042;6.830;2023-07-13T22:59:35;16.00;99.90
35645;DHT22;21764;52.042;6.830;2023-07-13T23:04:36;16.00;99.90
35645;DHT22;21764;52.042;6.830;2023-07-13T23:09:37;16.00;99.90
35645;DHT22;21764;52.042;6.830;2023-07-13T23:14:38;16.20;99.90
35645;DHT22;21764;52.042;6.830;2023-07-13T23:19:38;16.50;99.90
35645;DHT22;21764;52.042;6.830;2023-07-13T23:24:39;16.60;99.90
35645;DHT22;21764;52.042;6.830;2023-07-13T23:29:39;16.70;99.90
35645;DHT22;21764;52.042;6.830;2023-07-13T23:34:40;16.80;99.90
35645;DHT22;21764;52.042;6.830;2023-07-13T23:39:41;16.80;99.90
35645;DHT22;21764;52.042;6.830;2023-07-13T23:44:42;16.50;99.90
35645;DHT22;21764;52.042;6.830;2023-07-13T23:49:42;16.30;99.90
35645;DHT22;21764;52.042;6.830;2023-07-13T23:54:43;16.30;99.90
35645;DHT22;21764;52.042;6.830;2023-07-13T23:59:44;16.50;99.90
